• Join FlightAware (Why Join?)
  • Login
  • US Flag 
11:47AM EST


 

Airport Tracker/Info


-or-


 

Live Flight TrackerFlight Track Log ✈ ASQ4191 ✈ 30-Sep-2013 ✈ KEWR - KBNA

Flight Track Log - Related Links

Times and Time Zones

All times are in EDT time to prevent confusion due to time zone crossing. See the ASQ4191 flight status page for this flight to view local times or setup timezone preferences in your user account.

Time Position Orientation Groundspeed Altitude Reporting Facility
EDT Latitude Longitude Course Direction KTS MPH feet Rate Location/Type
07:31PM 40.6603 -74.1797 240° Southwest 171 197 1,700  Level New York Center
07:32PM 40.6297 -74.2328 233° Southwest 216 249 3,000 1,800 Climbing New York Center
07:33PM 40.6292 -74.3150 270° West 256 295 5,400 2,220 Climbing New York Center
07:34PM 40.6364 -74.4192 275° West 274 315 7,500 2,280 Climbing New York Center
07:35PM 40.4936 -74.8435 180° South  Level Estimated
07:35PM 40.6439 -74.5153 276° West 286 329 10,000  Level New York Center
07:36PM 40.4534 -74.9780 240° Southwest  Level Estimated
07:36PM 40.6525 -74.6361 275° West 323 372 10,800  Level New York Center
07:37PM 40.6611 -74.7514 276° West 371 427 12,500 1,800 Climbing New York Center
07:38PM 40.6714 -74.8753 276° West 357 411 14,500 1,500 Climbing New York Center
07:39PM 40.6794 -75.0017 275° West 354 407 15,600 960 Climbing New York Center
07:41PM 40.6081 -75.2458 249° West 354 407 17,500 900 Climbing New York Center
07:42PM 40.5533 -75.3653 239° Southwest 380 437 18,400 900 Climbing New York Center
07:43PM 40.4986 -75.4872 239° Southwest 392 451 19,300 1,020 Climbing New York Center
07:44PM 40.4436 -75.6089 239° Southwest 392 451 20,500 1,320 Climbing New York Center
07:45PM 40.3844 -75.7300 237° Southwest 392 451 22,000 1,440 Climbing New York Center
07:46PM 40.3314 -75.8489 240° Southwest 392 451 23,400 1,440 Climbing New York Center
07:47PM 40.2719 -75.9722 238° Southwest 392 451 24,900 1,380 Climbing New York Center
07:48PM 40.2147 -76.0878 237° Southwest 392 451 26,200 960 Climbing New York Center
07:49PM 40.1611 -76.2086 240° Southwest 392 451 26,900 360 Climbing New York Center
07:50PM 40.1011 -76.3369 239° Southwest 400 460 27,000  Climbing New York Center
07:51PM 40.0383 -76.4728 239° Southwest 425 489 27,000 120 Level New York Center
07:52PM 39.9731 -76.6111 238° Southwest 439 505 27,300 600 Climbing New York Center
07:53PM 39.9100 -76.7467 239° Southwest 444 511 28,300 900 Climbing New York Center
07:54PM 39.8467 -76.8819 239° Southwest 444 511 29,200 960 Climbing New York Center
07:55PM 39.7611 -77.0600 238° Southwest 423 487 30,600 960 Climbing Washington Center
07:57PM 39.6989 -77.1908 238° Southwest 423 487 31,600 900 Climbing Washington Center
07:57PM 39.6367 -77.3242 239° Southwest 423 487 32,500 900 Climbing Washington Center
07:58PM 39.5742 -77.4572 239° Southwest 428 493 33,500 900 Climbing Washington Center
08:00PM 39.5097 -77.5875 237° Southwest 428 493 34,400 900 Climbing Washington Center
08:01PM 39.4469 -77.7200 238° Southwest 428 493 35,400 780 Climbing Washington Center
08:01PM 39.3861 -77.8525 239° Southwest 428 493 36,000 300 Climbing Washington Center
08:02PM 39.3292 -77.9956 243° Southwest 435 501 36,000  Level Washington Center
08:03PM 39.2700 -78.1411 242° Southwest 452 520 36,000  Level Washington Center
08:05PM 39.2128 -78.2839 243° Southwest 452 520 36,000  Level Washington Center
08:06PM 39.1531 -78.4314 242° Southwest 458 527 36,000  Level Washington Center
08:06PM 39.0953 -78.5736 242° Southwest 458 527 36,000  Level Washington Center
08:07PM 39.0375 -78.7156 242° Southwest 458 527 36,000  Level Washington Center
08:09PM 38.9794 -78.8575 242° Southwest 453 521 36,000  Level Washington Center
08:09PM 38.9214 -78.9989 242° Southwest 447 514 36,000  Level Washington Center
08:10PM 38.8653 -79.1403 243° Southwest 447 514 36,000  Level Washington Center
08:11PM 38.8233 -79.2847 250° West 447 514 36,000  Level Washington Center
08:12PM 38.7978 -79.4353 258° West 436 502 36,000  Level Washington Center
08:14PM 38.7739 -79.5886 259° West 436 502 36,000  Level Washington Center
08:14PM 38.7461 -79.7389 257° West 436 502 36,000  Level Washington Center
08:15PM 38.7225 -79.8758 258° West 441 507 36,000  Level Washington Center
08:16PM 38.7000 -79.9706 253° West 433 498 36,000  Level Indianapolis Center
08:17PM 38.6708 -80.1208 256° West 434 499 36,000  Level Indianapolis Center
08:18PM 38.6425 -80.2719 257° West 436 502 36,000  Level Indianapolis Center
08:19PM 38.6142 -80.4214 256° West 433 498 36,000  Level Indianapolis Center
08:20PM 38.5869 -80.5697 257° West 430 495 36,000  Level Indianapolis Center
08:21PM 38.5581 -80.7189 256° West 431 496 36,000  Level Indianapolis Center
08:22PM 38.5233 -80.8978 256° West 431 496 36,000  Level Indianapolis Center
08:23PM 38.4942 -81.0469 256° West 431 496 36,000  Level Indianapolis Center
08:24PM 38.4642 -81.1956 256° West 430 495 36,000  Level Indianapolis Center
08:25PM 38.4350 -81.3450 256° West 430 495 36,000  Level Indianapolis Center
08:26PM 38.4058 -81.4947 256° West 430 495 36,000  Level Indianapolis Center
08:27PM 38.3758 -81.6433 256° West 429 494 36,000  Level Indianapolis Center
08:28PM 38.3447 -81.7908 255° West 426 490 36,000  Level Indianapolis Center
08:29PM 38.3039 -81.9358 250° West 431 496 36,000  Level Indianapolis Center
08:31PM 38.2625 -82.0794 250° West 432 497 36,000  Level Indianapolis Center
08:32PM 38.2231 -82.2242 251° West 432 497 36,000  Level Indianapolis Center
08:33PM 38.1714 -82.3964 249° West 433 498 36,000  Level Indianapolis Center
08:34PM 38.1122 -82.5303 241° Southwest 440 506 36,000  Level Indianapolis Center
08:35PM 38.0494 -82.6644 239° Southwest 443 510 36,000  Level Indianapolis Center
08:36PM 37.9872 -82.7992 240° Southwest 444 511 36,000  Level Indianapolis Center
08:37PM 37.9253 -82.9344 240° Southwest 444 511 36,000 -180 Level Indianapolis Center
08:38PM 37.8519 -83.0917 239° Southwest 445 512 35,700 -780 Descending Indianapolis Center
08:39PM 37.7875 -83.2303 240° Southwest 454 522 34,500 -840 Descending Indianapolis Center
08:40PM 37.7231 -83.3675 239° Southwest 454 522 34,000 -300 Descending Indianapolis Center
08:41PM 37.6572 -83.5086 240° Southwest 464 534 34,000  Level Indianapolis Center
08:42PM 37.5914 -83.6483 239° Southwest 465 535 34,000 -240 Level Indianapolis Center
08:43PM 37.5136 -83.8128 239° Southwest 469 540 33,600 -660 Descending Indianapolis Center
08:44PM 37.4467 -83.9522 239° Southwest 464 534 32,700 -960 Descending Indianapolis Center
08:45PM 37.3800 -84.0908 239° Southwest 464 534 31,700 -960 Descending Indianapolis Center
08:46PM 37.3150 -84.2281 239° Southwest 460 529 30,800 -960 Descending Indianapolis Center
08:47PM 37.2486 -84.3647 239° Southwest 457 526 29,800 -1,020 Descending Indianapolis Center
08:48PM 37.1806 -84.5044 239° Southwest 467 537 28,800 -960 Descending Indianapolis Center
08:49PM 37.1122 -84.6453 239° Southwest 472 543 27,900 -1,020 Descending Indianapolis Center
08:50PM 37.0389 -84.7958 239° Southwest 470 541 26,800 -1,020 Descending Indianapolis Center
08:51PM 36.9711 -84.9336 238° Southwest 467 537 25,900 -960 Descending Indianapolis Center
08:52PM 36.9047 -85.0728 239° Southwest 469 540 24,900 -1,380 Descending Indianapolis Center
08:53PM 36.8264 -85.2425 240° Southwest 471 542 23,100 -1,440 Descending Indianapolis Center
08:54PM 36.7633 -85.3731 239° Southwest 447 514 22,000 -900 Descending Indianapolis Center
08:55PM 36.7050 -85.5003 240° Southwest 428 493 21,300 -1,200 Descending Indianapolis Center
08:56PM 36.6456 -85.6247 239° Southwest 421 484 19,600 -1,920 Descending Indianapolis Center
08:57PM 36.5867 -85.7486 239° Southwest 419 482 17,400 -2,280 Descending Indianapolis Center
08:58PM 36.5272 -85.8717 239° Southwest 398 458 15,000 -2,280 Descending Indianapolis Center
08:59PM 36.4736 -85.9839 239° Southwest 379 436 12,800 -2,100 Descending Indianapolis Center
09:00PM 36.4225 -86.0944 240° Southwest 369 425 10,800 -1,500 Descending Indianapolis Center
09:01PM 36.3903 -86.1781 244° Southwest 346 398 10,100 -1,440 Descending Memphis Center
09:02PM 36.3578 -86.2622 244° Southwest 286 329 8,300 -1,980 Descending Memphis Center
09:03PM 36.3250 -86.3436 243° Southwest 271 312 6,200 -1,740 Descending Memphis Center
09:04PM 36.2944 -86.4275 246° West 265 305 4,800 -1,500 Descending Memphis Center
09:05PM 36.2656 -86.5036 245° Southwest 260 299 3,200 -1,200 Descending Memphis Center
09:06PM 36.2444 -86.5664 247° West 242 278 2,500 -600 Descending Memphis Center
09:07PM 36.2211 -86.6242 243° Southwest 211 243 2,100 -420 Descending Memphis Center
09:08PM 36.1931 -86.6564 223° Southwest 164 189 1,700 -600 Descending Memphis Center
09:09PM 36.1600 -86.6706 199° South 131 151 1,000 -540 Descending Memphis Center
09:10PM 36.1231 -86.6878 201° Southwest 131 151 700 -300 Descending Memphis Center